Time;durP1;ratioP1;P1;durP2;ratioP2;P2;SDS_P1;SDS_P2;PMS_P1;PMS_P2;Temp;Humidity;BMP_temperature;BMP_pressure;BME280_temperature;BME280_humidity;BME280_pressure;Samples;Min_cycle;Max_cycle;Signal;HPM_P1;HPM_P2
2022/10/22 00:01:39;;;;;;;18.37;15.30;;;15.00;99.90;;;;;;5101217;28;20453;-67
2022/10/22 00:04:06;;;;;;;20.63;15.20;;;15.00;99.90;;;;;;5100989;28;20525;-68
2022/10/22 00:06:33;;;;;;;30.17;21.33;;;15.00;99.90;;;;;;5100655;28;20457;-68
2022/10/22 00:09:00;;;;;;;17.03;15.20;;;15.00;99.90;;;;;;5100204;28;20454;-68
2022/10/22 00:11:29;;;;;;;19.20;15.07;;;15.00;99.90;;;;;;5100408;28;20460;-68
2022/10/22 00:13:56;;;;;;;23.67;15.87;;;15.00;99.90;;;;;;5100685;28;20540;-67
2022/10/22 00:16:22;;;;;;;16.87;13.77;;;15.00;99.90;;;;;;5100082;28;20463;-68
2022/10/22 00:18:49;;;;;;;22.70;16.70;;;15.00;99.90;;;;;;5100562;28;20489;-68
2022/10/22 00:21:16;;;;;;;20.90;17.60;;;15.00;99.90;;;;;;5100636;28;20545;-68
2022/10/22 00:23:44;;;;;;;19.47;14.10;;;15.00;99.90;;;;;;5100541;28;20530;-67
2022/10/22 00:26:11;;;;;;;18.87;14.57;;;15.00;99.90;;;;;;5101302;28;20492;-67
2022/10/22 00:28:39;;;;;;;18.10;13.90;;;15.00;99.90;;;;;;5100440;28;21036;-68
2022/10/22 00:31:07;;;;;;;16.97;13.83;;;15.00;99.90;;;;;;5100633;28;20549;-67
2022/10/22 00:33:34;;;;;;;17.63;13.90;;;15.00;99.90;;;;;;5100175;28;20515;-67
2022/10/22 00:36:01;;;;;;;18.10;13.37;;;15.00;99.90;;;;;;5101031;28;20517;-68
2022/10/22 00:38:28;;;;;;;16.03;12.23;;;15.00;99.90;;;;;;5100598;28;20525;-68
2022/10/22 00:40:55;;;;;;;15.37;13.60;;;15.00;99.90;;;;;;5100854;28;20460;-68
2022/10/22 00:43:22;;;;;;;13.13;11.57;;;15.00;99.90;;;;;;5102022;28;20464;-67
2022/10/22 00:45:50;;;;;;;15.50;12.70;;;15.00;99.90;;;;;;5101229;28;20511;-67
2022/10/22 00:48:21;;;;;;;13.80;11.73;;;15.10;99.90;;;;;;5100552;28;20552;-68
2022/10/22 00:50:54;;;;;;;15.00;11.43;;;15.00;99.90;;;;;;5101811;28;20524;-67
2022/10/22 00:53:24;;;;;;;16.33;12.43;;;15.10;99.90;;;;;;5101380;28;20461;-68
2022/10/22 00:55:53;;;;;;;13.57;12.17;;;15.10;99.90;;;;;;5100669;28;20849;-68
2022/10/22 00:58:22;;;;;;;15.00;12.20;;;15.10;99.90;;;;;;5100086;28;20540;-68
2022/10/22 01:00:50;;;;;;;18.47;11.73;;;15.10;99.90;;;;;;5101178;28;20927;-68
2022/10/22 01:03:17;;;;;;;13.70;11.30;;;15.10;99.90;;;;;;5101332;28;20458;-68
2022/10/22 01:05:51;;;;;;;13.60;12.13;;;15.10;99.90;;;;;;5100858;28;20503;-68
2022/10/22 01:08:26;;;;;;;13.07;11.80;;;15.10;99.90;;;;;;5100307;28;20880;-68
2022/10/22 01:11:06;;;;;;;15.80;11.97;;;15.10;99.90;;;;;;5100407;28;20768;-68
2022/10/22 01:13:45;;;;;;;13.93;11.93;;;15.10;99.90;;;;;;5100216;28;20949;-67
2022/10/22 01:16:21;;;;;;;17.07;13.00;;;15.10;99.90;;;;;;5100109;28;20877;-68
2022/10/22 01:18:55;;;;;;;14.83;12.67;;;15.00;99.90;;;;;;5099116;28;20907;-68
2022/10/22 01:21:27;;;;;;;15.40;12.47;;;15.00;99.90;;;;;;5098574;28;20900;-68
2022/10/22 01:24:34;;;;;;;19.20;13.37;;;15.00;99.90;;;;;;5099555;28;20452;-68
2022/10/22 01:27:11;;;;;;;16.80;12.50;;;14.90;99.90;;;;;;5098368;28;20572;-68
2022/10/22 01:29:43;;;;;;;17.07;13.67;;;14.90;99.90;;;;;;5099503;28;20575;-68
2022/10/22 01:32:15;;;;;;;17.00;13.80;;;14.90;99.90;;;;;;5098877;28;20477;-68
2022/10/22 01:34:45;;;;;;;15.97;13.60;;;14.80;99.90;;;;;;5100120;28;20507;-68
2022/10/22 01:37:15;;;;;;;19.60;13.07;;;14.90;99.90;;;;;;5099457;28;20982;-68
2022/10/22 01:39:45;;;;;;;18.30;14.70;;;14.90;99.90;;;;;;5098668;28;20463;-68
2022/10/22 01:42:12;;;;;;;17.57;14.40;;;14.80;99.90;;;;;;5098528;28;20450;-68
2022/10/22 01:44:41;;;;;;;17.23;13.60;;;14.80;99.90;;;;;;5097479;28;20503;-68
2022/10/22 01:47:17;;;;;;;21.40;15.00;;;14.80;99.90;;;;;;5098528;28;20537;-68
2022/10/22 01:50:11;;;;;;;16.63;13.33;;;14.80;99.90;;;;;;5099922;28;20897;-68
2022/10/22 01:52:57;;;;;;;18.37;14.83;;;14.80;99.90;;;;;;5101501;28;20523;-68
2022/10/22 01:55:30;;;;;;;17.80;14.30;;;14.80;99.90;;;;;;5099965;28;20540;-68
2022/10/22 01:58:19;;;;;;;18.10;14.00;;;14.80;99.90;;;;;;5099753;28;20832;-67
2022/10/22 02:00:55;;;;;;;19.90;14.10;;;14.80;99.90;;;;;;5099607;28;20524;-67
2022/10/22 02:03:26;;;;;;;16.97;13.57;;;14.80;99.90;;;;;;5100262;28;20818;-68
2022/10/22 02:05:56;;;;;;;15.97;14.27;;;14.80;99.90;;;;;;5100049;28;20529;-67
2022/10/22 02:08:27;;;;;;;17.00;14.60;;;14.80;99.90;;;;;;5099069;28;20453;-68
2022/10/22 02:10:54;;;;;;;17.33;14.80;;;14.80;99.90;;;;;;5098244;28;20528;-68
2022/10/22 02:13:25;;;;;;;17.10;13.23;;;14.80;99.90;;;;;;5099018;28;20548;-68
2022/10/22 02:15:55;;;;;;;19.23;14.23;;;14.70;99.90;;;;;;5098174;28;20437;-68
2022/10/22 02:18:27;;;;;;;18.70;14.50;;;14.70;99.90;;;;;;5099031;28;20437;-68
2022/10/22 02:20:54;;;;;;;16.93;13.80;;;14.70;99.90;;;;;;5097735;28;20536;-68
2022/10/22 02:23:22;;;;;;;19.00;14.20;;;14.60;99.90;;;;;;5097512;28;20532;-68
2022/10/22 02:25:57;;;;;;;17.87;13.77;;;14.60;99.90;;;;;;5097470;28;20460;-68
2022/10/22 02:28:29;;;;;;;19.43;14.23;;;14.60;99.90;;;;;;5098206;28;20595;-67
2022/10/22 02:31:05;;;;;;;16.67;13.83;;;14.60;99.90;;;;;;5098576;28;20769;-67
2022/10/22 02:33:36;;;;;;;17.07;13.40;;;14.60;99.90;;;;;;5098298;28;20493;-68
2022/10/22 02:36:05;;;;;;;15.47;13.10;;;14.60;99.90;;;;;;5098993;28;20442;-68
2022/10/22 02:38:34;;;;;;;22.10;14.20;;;14.60;99.90;;;;;;5101257;28;20969;-68
2022/10/22 02:41:01;;;;;;;18.83;13.50;;;14.60;99.90;;;;;;5101023;28;20544;-68
2022/10/22 02:43:29;;;;;;;17.70;13.67;;;14.60;99.90;;;;;;5101045;28;20849;-68
2022/10/22 02:45:57;;;;;;;17.03;14.03;;;14.60;99.90;;;;;;5100685;28;20492;-68
2022/10/22 02:48:24;;;;;;;19.47;15.30;;;14.60;99.90;;;;;;5101663;28;20458;-68
2022/10/22 02:50:51;;;;;;;16.93;12.77;;;14.60;99.90;;;;;;5101758;28;20786;-68
2022/10/22 02:53:18;;;;;;;17.70;14.47;;;14.60;99.90;;;;;;5101214;28;20483;-68
2022/10/22 02:55:45;;;;;;;18.17;13.53;;;14.60;99.90;;;;;;5099257;28;20464;-67
2022/10/22 02:58:12;;;;;;;19.03;13.73;;;14.60;99.90;;;;;;5099360;28;20459;-68
2022/10/22 03:00:39;;;;;;;17.77;13.10;;;14.60;99.90;;;;;;5098942;28;20457;-68
2022/10/22 03:03:07;;;;;;;17.17;13.57;;;14.50;99.90;;;;;;5097976;28;20537;-68
2022/10/22 03:05:34;;;;;;;18.60;13.97;;;14.50;99.90;;;;;;5098514;28;20458;-68
2022/10/22 03:08:01;;;;;;;18.40;13.30;;;14.50;99.90;;;;;;5099197;28;20536;-68
2022/10/22 03:10:28;;;;;;;16.87;13.50;;;14.50;99.90;;;;;;5099358;28;20857;-68
2022/10/22 03:12:55;;;;;;;15.70;13.37;;;14.50;99.90;;;;;;5099682;28;20565;-68
2022/10/22 03:15:22;;;;;;;19.20;14.10;;;14.50;99.90;;;;;;5099353;28;20552;-68
2022/10/22 03:17:48;;;;;;;14.93;12.77;;;14.60;99.90;;;;;;5099005;28;20481;-67
2022/10/22 03:20:17;;;;;;;17.23;13.90;;;14.60;99.90;;;;;;5099664;28;20521;-67
2022/10/22 03:22:44;;;;;;;17.07;13.27;;;14.60;99.90;;;;;;5099724;28;20460;-67
2022/10/22 03:25:15;;;;;;;18.13;13.90;;;14.60;99.90;;;;;;5099938;28;20458;-68
2022/10/22 03:27:42;;;;;;;17.00;13.83;;;14.60;99.90;;;;;;5098744;28;20442;-68
2022/10/22 03:30:10;;;;;;;17.57;13.27;;;14.60;99.90;;;;;;5099237;28;20972;-68
2022/10/22 03:32:37;;;;;;;15.10;12.63;;;14.60;99.90;;;;;;5099533;28;20457;-68
2022/10/22 03:35:05;;;;;;;15.90;13.47;;;14.60;99.90;;;;;;5099615;28;20530;-68
2022/10/22 03:37:34;;;;;;;14.17;12.40;;;14.60;99.90;;;;;;5101107;28;20464;-68
2022/10/22 03:40:02;;;;;;;16.00;13.47;;;14.60;99.90;;;;;;5100200;28;20525;-68
2022/10/22 03:42:29;;;;;;;15.53;13.57;;;14.60;99.90;;;;;;5100549;28;20516;-67
2022/10/22 03:44:55;;;;;;;17.93;13.27;;;14.50;99.90;;;;;;5103306;28;20543;-67
2022/10/22 03:47:23;;;;;;;16.27;12.70;;;14.60;99.90;;;;;;5104051;28;20492;-68
2022/10/22 03:49:50;;;;;;;14.53;12.47;;;14.50;99.90;;;;;;5105021;28;20457;-67
2022/10/22 03:52:17;;;;;;;18.37;14.37;;;14.60;99.90;;;;;;5105122;28;20495;-67
2022/10/22 03:54:45;;;;;;;17.27;13.43;;;14.60;99.90;;;;;;5102735;28;20517;-67
2022/10/22 03:57:12;;;;;;;15.77;12.97;;;14.60;99.90;;;;;;5101114;28;20512;-68
2022/10/22 03:59:42;;;;;;;15.03;13.40;;;14.60;99.90;;;;;;5099952;28;20556;-68
2022/10/22 04:02:09;;;;;;;14.00;12.30;;;14.60;99.90;;;;;;5099658;28;20468;-68
2022/10/22 04:04:37;;;;;;;20.30;13.13;;;14.60;99.90;;;;;;5099376;28;20510;-68
2022/10/22 04:07:04;;;;;;;15.73;13.10;;;14.60;99.90;;;;;;5103192;28;20463;-68
2022/10/22 04:09:31;;;;;;;18.43;13.17;;;14.60;99.90;;;;;;5103393;28;20548;-68
2022/10/22 04:12:00;;;;;;;13.70;12.00;;;14.60;99.90;;;;;;5102246;28;20457;-68
2022/10/22 04:14:27;;;;;;;15.03;12.43;;;14.60;99.90;;;;;;5102854;28;20572;-68
2022/10/22 04:16:54;;;;;;;14.40;12.33;;;14.60;99.90;;;;;;5103468;28;20472;-68
2022/10/22 04:19:21;;;;;;;17.20;12.07;;;14.60;99.90;;;;;;5103607;28;20963;-68
2022/10/22 04:21:49;;;;;;;15.93;13.03;;;14.60;99.90;;;;;;5103786;28;20481;-68
2022/10/22 04:24:16;;;;;;;16.67;12.40;;;14.60;99.90;;;;;;5103824;28;20450;-68
2022/10/22 04:26:43;;;;;;;17.47;13.27;;;14.60;99.90;;;;;;5103098;28;20551;-67
2022/10/22 04:29:12;;;;;;;13.10;11.70;;;14.60;99.90;;;;;;5103141;28;20497;-67
2022/10/22 04:31:39;;;;;;;15.57;11.90;;;14.60;99.90;;;;;;5104226;28;20446;-69
2022/10/22 04:34:06;;;;;;;15.20;12.03;;;14.60;99.90;;;;;;5104995;28;20512;-67
2022/10/22 04:36:34;;;;;;;17.00;12.40;;;14.60;99.90;;;;;;5103603;28;20457;-69
2022/10/22 04:39:02;;;;;;;17.03;12.37;;;14.60;99.90;;;;;;5104222;28;20480;-68
2022/10/22 04:41:30;;;;;;;12.30;11.03;;;14.60;99.90;;;;;;5103911;28;20465;-68
2022/10/22 04:43:57;;;;;;;16.93;12.30;;;14.60;99.90;;;;;;5103416;28;20491;-68
2022/10/22 04:46:29;;;;;;;15.40;12.23;;;14.60;99.90;;;;;;5103286;28;20500;-68
2022/10/22 04:48:56;;;;;;;16.10;12.30;;;14.50;99.90;;;;;;5103889;28;20517;-68
2022/10/22 04:51:24;;;;;;;14.80;11.90;;;14.50;99.90;;;;;;5102325;28;20485;-68
2022/10/22 04:53:51;;;;;;;17.50;12.90;;;14.50;99.90;;;;;;5101442;28;20865;-67
2022/10/22 04:56:20;;;;;;;13.40;11.40;;;14.50;99.90;;;;;;5101152;28;20530;-68
2022/10/22 04:58:49;;;;;;;17.90;12.60;;;14.50;99.90;;;;;;5101984;28;20841;-68
2022/10/22 05:01:18;;;;;;;15.93;12.30;;;14.50;99.90;;;;;;5102121;28;20534;-68
2022/10/22 05:03:48;;;;;;;16.23;12.90;;;14.50;99.90;;;;;;5102253;28;20541;-68
2022/10/22 05:06:16;;;;;;;17.03;12.77;;;14.50;99.90;;;;;;5102624;28;20520;-68
2022/10/22 05:08:43;;;;;;;16.03;13.00;;;14.50;99.90;;;;;;5101845;28;21010;-68
2022/10/22 05:11:14;;;;;;;16.00;12.50;;;14.40;99.90;;;;;;5100773;28;20544;-68
2022/10/22 05:13:41;;;;;;;14.37;12.87;;;14.40;99.90;;;;;;5101632;28;20887;-68
2022/10/22 05:16:09;;;;;;;14.97;13.33;;;14.40;99.90;;;;;;5102919;28;20545;-68
2022/10/22 05:18:36;;;;;;;14.53;12.00;;;14.40;99.90;;;;;;5102291;28;20825;-67
2022/10/22 05:21:08;;;;;;;14.80;12.47;;;14.40;99.90;;;;;;5103236;28;20521;-68
2022/10/22 05:23:35;;;;;;;15.97;12.40;;;14.40;99.90;;;;;;5102943;28;20472;-68
2022/10/22 05:26:03;;;;;;;16.57;13.17;;;14.40;99.90;;;;;;5103347;28;20481;-68
2022/10/22 05:28:30;;;;;;;18.80;12.97;;;14.30;99.90;;;;;;5103454;28;20496;-68
2022/10/22 05:30:58;;;;;;;18.50;12.30;;;14.30;99.90;;;;;;5103302;28;20595;-68
2022/10/22 05:33:25;;;;;;;18.57;13.73;;;14.30;99.90;;;;;;5104109;28;20484;-68
2022/10/22 05:35:52;;;;;;;15.60;12.83;;;14.30;99.90;;;;;;5103631;28;20473;-69
2022/10/22 05:38:21;;;;;;;16.30;13.07;;;14.30;99.90;;;;;;5103101;28;20545;-67
2022/10/22 05:40:58;;;;;;;18.00;13.17;;;14.40;99.90;;;;;;5102108;28;20635;-68
2022/10/22 05:43:25;;;;;;;14.60;13.07;;;14.30;99.90;;;;;;5103131;28;20480;-67
2022/10/22 05:45:52;;;;;;;14.93;13.17;;;14.30;99.90;;;;;;5101569;28;21005;-68
2022/10/22 05:48:19;;;;;;;15.07;12.33;;;14.30;99.90;;;;;;5101882;28;20544;-68
2022/10/22 05:50:49;;;;;;;14.60;12.17;;;14.30;99.90;;;;;;5102326;28;20477;-68
2022/10/22 05:53:16;;;;;;;15.63;12.07;;;14.30;99.90;;;;;;5101990;28;20557;-68
2022/10/22 05:55:45;;;;;;;16.20;12.07;;;14.30;99.90;;;;;;5102543;28;20988;-68
2022/10/22 05:58:13;;;;;;;17.80;12.60;;;14.30;99.90;;;;;;5103422;28;20540;-68
2022/10/22 06:00:40;;;;;;;16.20;13.27;;;14.30;99.90;;;;;;5104829;28;20828;-68
2022/10/22 06:03:07;;;;;;;15.17;13.00;;;14.30;99.90;;;;;;5103437;28;20485;-68
2022/10/22 06:05:35;;;;;;;16.00;12.17;;;14.30;99.90;;;;;;5103513;28;20540;-68
2022/10/22 06:08:02;;;;;;;17.90;13.37;;;14.30;99.90;;;;;;5102743;28;20475;-68
2022/10/22 06:10:30;;;;;;;14.83;12.57;;;14.30;99.90;;;;;;5103712;28;20556;-68
2022/10/22 06:13:00;;;;;;;15.40;12.03;;;14.30;99.90;;;;;;5103473;28;20492;-68
2022/10/22 06:15:27;;;;;;;17.03;12.60;;;14.30;99.90;;;;;;5100009;28;20474;-69
2022/10/22 06:17:54;;;;;;;15.50;13.10;;;14.20;99.90;;;;;;5099970;28;20544;-67
2022/10/22 06:20:20;;;;;;;17.00;12.70;;;14.20;99.90;;;;;;5101667;28;20540;-68
2022/10/22 06:22:48;;;;;;;17.03;13.33;;;14.20;99.90;;;;;;5101785;28;20492;-68
2022/10/22 06:25:15;;;;;;;18.80;13.00;;;14.20;99.90;;;;;;5102107;28;20476;-68
2022/10/22 06:27:41;;;;;;;19.10;13.20;;;14.30;99.90;;;;;;5105089;28;20536;-68
2022/10/22 06:30:11;;;;;;;16.77;13.30;;;14.30;99.90;;;;;;5105069;28;20885;-67
2022/10/22 06:32:37;;;;;;;18.33;13.13;;;14.30;99.90;;;;;;5105007;28;20457;-70
2022/10/22 06:35:05;;;;;;;17.00;13.07;;;14.30;99.90;;;;;;5104739;28;20585;-69
2022/10/22 06:37:32;;;;;;;15.73;12.33;;;14.40;99.90;;;;;;5105019;28;20540;-69
2022/10/22 06:39:59;;;;;;;14.90;12.40;;;14.40;99.90;;;;;;5105329;28;20566;-68
2022/10/22 06:42:25;;;;;;;15.70;12.57;;;14.40;99.90;;;;;;5104659;28;20543;-69
2022/10/22 06:44:52;;;;;;;14.50;11.87;;;14.50;99.90;;;;;;5105317;28;20465;-68
2022/10/22 06:47:21;;;;;;;13.30;11.50;;;14.50;99.90;;;;;;5104772;28;20481;-70
2022/10/22 06:49:49;;;;;;;16.60;11.93;;;14.50;99.90;;;;;;5105218;28;20511;-67
2022/10/22 06:52:16;;;;;;;14.60;11.93;;;14.50;99.90;;;;;;5104674;28;20450;-69
2022/10/22 06:54:43;;;;;;;16.47;12.63;;;14.60;99.90;;;;;;5104386;28;20981;-68
2022/10/22 06:57:10;;;;;;;13.57;11.70;;;14.60;99.90;;;;;;5104866;28;20509;-69
2022/10/22 06:59:37;;;;;;;15.83;12.23;;;14.60;99.90;;;;;;5104108;28;20556;-67
2022/10/22 07:02:04;;;;;;;17.33;12.80;;;14.60;99.90;;;;;;5104676;28;20468;-67
2022/10/22 07:04:32;;;;;;;14.97;12.33;;;14.60;99.90;;;;;;5104990;28;20464;-68
2022/10/22 07:06:59;;;;;;;16.20;12.67;;;14.70;99.90;;;;;;5105387;28;20484;-68
2022/10/22 07:09:26;;;;;;;16.60;12.60;;;14.70;99.90;;;;;;5103742;28;20540;-68
2022/10/22 07:11:53;;;;;;;17.83;13.10;;;14.70;99.90;;;;;;5103893;28;20913;-68
2022/10/22 07:14:20;;;;;;;15.20;12.87;;;14.70;99.90;;;;;;5104587;28;20504;-68
2022/10/22 07:16:46;;;;;;;18.07;13.10;;;14.70;99.90;;;;;;5103905;28;20496;-68
2022/10/22 07:19:14;;;;;;;13.50;11.70;;;14.70;99.90;;;;;;5106420;28;20513;-68
2022/10/22 07:21:42;;;;;;;14.80;12.97;;;14.70;99.90;;;;;;5107813;28;20465;-67
2022/10/22 07:24:09;;;;;;;14.10;11.30;;;14.70;99.90;;;;;;5108236;28;20466;-68
2022/10/22 07:26:36;;;;;;;13.10;11.73;;;14.80;99.90;;;;;;5108830;28;20543;-68
2022/10/22 07:29:04;;;;;;;16.00;12.70;;;14.80;99.90;;;;;;5107999;28;20540;-68
2022/10/22 07:31:31;;;;;;;14.30;12.37;;;14.90;99.90;;;;;;5106783;28;20544;-67
2022/10/22 07:33:58;;;;;;;16.43;11.87;;;14.90;99.90;;;;;;5107705;28;20536;-68
2022/10/22 07:36:25;;;;;;;16.20;13.93;;;15.00;99.90;;;;;;5108828;28;20497;-68
2022/10/22 07:38:56;;;;;;;16.20;13.20;;;15.00;99.90;;;;;;5108823;28;20532;-68
2022/10/22 07:41:24;;;;;;;15.57;13.63;;;15.00;99.90;;;;;;5108562;28;20457;-68
2022/10/22 07:43:51;;;;;;;13.53;11.67;;;15.10;99.90;;;;;;5109068;28;20532;-69
2022/10/22 07:46:18;;;;;;;16.80;12.37;;;15.20;99.90;;;;;;5109054;28;20516;-68
2022/10/22 07:48:45;;;;;;;15.10;11.90;;;15.20;99.90;;;;;;5109254;28;20464;-69
2022/10/22 07:51:12;;;;;;;12.97;11.63;;;15.20;99.90;;;;;;5109341;28;20513;-68
2022/10/22 07:53:39;;;;;;;16.25;12.65;;;15.30;99.90;;;;;;5108385;28;20540;-67
2022/10/22 07:56:08;;;;;;;13.13;11.60;;;15.40;99.90;;;;;;5107767;28;20487;-68
2022/10/22 07:58:35;;;;;;;16.03;12.00;;;15.40;99.90;;;;;;5106982;28;20492;-68
2022/10/22 08:01:04;;;;;;;13.93;12.23;;;15.40;99.90;;;;;;5108245;28;20507;-68
2022/10/22 08:03:31;;;;;;;15.60;12.43;;;15.50;99.90;;;;;;5106308;28;20449;-67
2022/10/22 08:05:59;;;;;;;11.33;10.13;;;15.50;99.90;;;;;;5106308;28;20551;-68
2022/10/22 08:08:26;;;;;;;14.97;11.77;;;15.50;99.90;;;;;;5107206;28;20509;-67
2022/10/22 08:10:53;;;;;;;15.13;11.30;;;15.50;99.90;;;;;;5107248;28;20455;-70
2022/10/22 08:13:22;;;;;;;14.63;12.50;;;15.50;99.90;;;;;;5108079;28;20454;-68
2022/10/22 08:15:49;;;;;;;18.50;12.20;;;15.40;99.90;;;;;;5106407;28;20477;-68
2022/10/22 08:18:16;;;;;;;16.23;12.30;;;15.30;99.90;;;;;;5104067;28;20457;-69
2022/10/22 08:20:43;;;;;;;15.20;12.13;;;15.30;99.90;;;;;;5100437;28;21009;-68
2022/10/22 08:23:10;;;;;;;14.60;12.30;;;15.30;99.90;;;;;;5101818;28;20491;-69
2022/10/22 08:25:37;;;;;;;14.83;12.40;;;15.30;99.90;;;;;;5101484;28;20830;-69
2022/10/22 08:28:04;;;;;;;16.83;12.33;;;15.30;99.90;;;;;;5096446;28;140366;-68
2022/10/22 08:30:32;;;;;;;15.60;12.57;;;15.30;99.90;;;;;;5102185;28;20453;-68
2022/10/22 08:32:59;;;;;;;14.77;12.30;;;15.30;99.90;;;;;;5102319;28;20460;-68
2022/10/22 08:35:26;;;;;;;14.60;11.93;;;15.30;99.90;;;;;;5102277;28;20477;-69
2022/10/22 08:37:53;;;;;;;12.33;10.93;;;15.30;99.90;;;;;;5102680;28;20477;-69
2022/10/22 08:40:28;;;;;;;15.30;11.33;;;15.40;99.90;;;;;;5102530;28;20525;-68
2022/10/22 08:43:30;;;;;;;19.20;12.50;;;15.50;99.90;;;;;;5100426;28;20521;-68
2022/10/22 08:46:12;;;;;;;13.00;10.43;;;15.40;99.90;;;;;;5101268;28;20451;-69
2022/10/22 08:48:45;;;;;;;14.40;10.83;;;15.40;99.90;;;;;;5101417;28;20425;-69
2022/10/22 08:51:15;;;;;;;13.80;11.60;;;15.50;99.90;;;;;;5100050;28;20437;-68
2022/10/22 08:53:51;;;;;;;14.30;11.90;;;15.50;99.90;;;;;;5099654;28;20747;-68
2022/10/22 08:56:18;;;;;;;15.00;11.00;;;15.50;99.90;;;;;;5098802;28;20465;-69
2022/10/22 08:58:51;;;;;;;12.03;10.77;;;15.60;99.90;;;;;;5098332;28;20567;-68
2022/10/22 09:01:33;;;;;;;14.97;11.90;;;15.60;99.90;;;;;;5098815;28;20532;-68
2022/10/22 09:04:09;;;;;;;13.23;11.80;;;15.70;99.90;;;;;;5099532;28;20441;-68
2022/10/22 09:06:38;;;;;;;13.37;11.30;;;15.70;99.90;;;;;;5100446;28;20433;-69
2022/10/22 09:09:10;;;;;;;12.50;11.13;;;15.70;99.90;;;;;;5101034;28;20525;-68
2022/10/22 09:11:40;;;;;;;15.80;12.10;;;15.70;99.90;;;;;;5099699;28;20463;-69
2022/10/22 09:14:12;;;;;;;15.43;12.73;;;15.70;99.90;;;;;;5101240;28;20525;-69
2022/10/22 09:16:51;;;;;;;14.80;11.70;;;15.70;99.90;;;;;;5099818;28;20442;-69
2022/10/22 09:19:25;;;;;;;13.17;11.73;;;15.70;99.90;;;;;;5102051;28;20445;-68
2022/10/22 09:21:57;;;;;;;15.77;11.80;;;15.70;99.90;;;;;;5105536;28;20526;-68
2022/10/22 09:24:37;;;;;;;16.50;12.37;;;15.70;99.90;;;;;;5103251;28;20457;-69
2022/10/22 09:27:11;;;;;;;12.77;11.47;;;15.70;99.90;;;;;;5102863;28;20547;-67
2022/10/22 09:29:38;;;;;;;16.87;12.13;;;15.70;99.90;;;;;;5100465;28;20575;-68
2022/10/22 09:32:07;;;;;;;12.80;11.50;;;15.70;99.90;;;;;;5099520;28;20500;-68
2022/10/22 09:34:34;;;;;;;13.33;11.97;;;15.70;99.90;;;;;;5100579;28;20484;-68
2022/10/22 09:37:02;;;;;;;15.97;11.70;;;15.70;99.90;;;;;;5099750;28;20454;-68
2022/10/22 09:39:33;;;;;;;18.10;13.80;;;15.60;99.90;;;;;;5099155;28;20465;-68
2022/10/22 09:42:00;;;;;;;14.00;12.60;;;15.70;99.90;;;;;;5098371;28;20970;-68
2022/10/22 09:44:27;;;;;;;13.03;11.63;;;15.70;99.90;;;;;;5100054;28;20516;-68
2022/10/22 09:46:54;;;;;;;14.40;11.13;;;15.80;99.90;;;;;;5101459;28;20464;-68
2022/10/22 09:49:24;;;;;;;14.00;11.70;;;15.80;99.90;;;;;;5099463;28;20453;-68
2022/10/22 09:51:54;;;;;;;15.27;13.00;;;15.90;99.90;;;;;;5097221;28;20789;-68
2022/10/22 09:54:23;;;;;;;15.00;11.50;;;16.00;99.90;;;;;;5096023;28;20453;-68
2022/10/22 09:56:56;;;;;;;14.40;12.60;;;16.20;99.90;;;;;;5097787;28;20479;-67
2022/10/22 09:59:31;;;;;;;15.50;10.83;;;16.20;99.90;;;;;;5097758;28;20499;-68
2022/10/22 10:02:06;;;;;;;13.30;11.90;;;16.30;99.90;;;;;;5097426;28;20456;-69
2022/10/22 10:04:42;;;;;;;13.07;11.77;;;16.40;99.90;;;;;;5097864;28;20519;-68
2022/10/22 10:07:16;;;;;;;15.07;12.37;;;16.30;99.90;;;;;;5100823;28;20448;-69
2022/10/22 10:09:43;;;;;;;13.13;11.27;;;16.20;99.90;;;;;;5101320;28;20437;-68
2022/10/22 10:12:23;;;;;;;15.03;13.43;;;16.20;99.90;;;;;;5098938;28;20468;-68
2022/10/22 10:14:59;;;;;;;14.40;11.33;;;16.20;99.90;;;;;;5097609;28;20476;-68
2022/10/22 10:17:32;;;;;;;16.23;12.97;;;16.20;99.90;;;;;;5099453;28;20437;-69
2022/10/22 10:20:15;;;;;;;12.80;11.50;;;16.30;99.90;;;;;;5101049;28;20448;-69
2022/10/22 10:22:52;;;;;;;16.63;12.90;;;16.20;99.90;;;;;;5099265;28;20447;-69
2022/10/22 10:25:41;;;;;;;18.70;12.57;;;16.30;99.90;;;;;;5099494;28;20438;-69
2022/10/22 10:28:27;;;;;;;15.83;12.63;;;16.20;99.90;;;;;;5097124;28;20496;-68
2022/10/22 10:31:04;;;;;;;16.03;12.97;;;16.20;99.90;;;;;;5096321;28;20451;-69
2022/10/22 10:33:43;;;;;;;15.23;12.87;;;16.10;99.90;;;;;;5095954;28;20430;-68
2022/10/22 10:36:19;;;;;;;15.83;12.53;;;16.20;99.90;;;;;;5096477;28;20465;-68
2022/10/22 10:38:56;;;;;;;17.27;11.93;;;16.20;99.90;;;;;;5095307;28;20452;-69
2022/10/22 10:41:33;;;;;;;17.10;13.67;;;16.20;99.90;;;;;;5094649;28;20441;-68
2022/10/22 10:44:22;;;;;;;15.33;13.20;;;16.30;99.90;;;;;;5094682;28;20452;-69
2022/10/22 10:46:59;;;;;;;14.23;12.90;;;16.40;99.90;;;;;;5095070;28;20452;-69
2022/10/22 10:49:29;;;;;;;17.90;12.90;;;16.50;99.90;;;;;;5095529;28;20480;-69
2022/10/22 10:52:03;;;;;;;15.73;12.37;;;16.50;99.90;;;;;;5095750;28;20568;-68
2022/10/22 10:54:43;;;;;;;14.10;12.60;;;16.50;99.90;;;;;;5099136;28;20520;-69
2022/10/22 10:57:19;;;;;;;18.63;13.00;;;16.50;99.90;;;;;;5099768;28;20433;-69
2022/10/22 11:00:00;;;;;;;13.93;12.53;;;16.50;99.90;;;;;;5099207;28;20437;-69
2022/10/22 11:02:51;;;;;;;15.30;13.10;;;16.60;99.90;;;;;;5098883;28;20439;-68
2022/10/22 11:05:29;;;;;;;14.37;12.17;;;16.80;99.90;;;;;;5099578;28;20782;-70
2022/10/22 11:08:02;;;;;;;15.40;12.70;;;16.90;99.90;;;;;;5098681;28;20472;-69
2022/10/22 11:10:33;;;;;;;16.40;13.40;;;17.00;99.90;;;;;;5098754;28;20449;-69
2022/10/22 11:13:07;;;;;;;16.83;11.83;;;17.10;99.90;;;;;;5098369;28;20447;-69
2022/10/22 11:15:36;;;;;;;14.83;11.97;;;17.20;99.90;;;;;;5098550;28;20805;-69
2022/10/22 11:18:13;;;;;;;14.00;11.73;;;17.30;99.90;;;;;;5098433;28;20553;-68
2022/10/22 11:20:48;;;;;;;14.73;12.07;;;17.40;99.90;;;;;;5098785;28;20437;-69
2022/10/22 11:23:23;;;;;;;19.37;13.20;;;17.50;99.90;;;;;;5098391;28;20451;-68
2022/10/22 11:25:50;;;;;;;14.03;12.50;;;17.60;99.90;;;;;;5099350;28;20456;-68
2022/10/22 11:28:23;;;;;;;15.80;12.97;;;17.90;99.90;;;;;;5101480;28;20795;-68
2022/10/22 11:30:58;;;;;;;23.40;14.00;;;18.20;99.90;;;;;;5102665;28;20441;-69
2022/10/22 11:33:30;;;;;;;14.17;12.23;;;18.50;99.90;;;;;;5101828;28;20522;-69
2022/10/22 11:35:59;;;;;;;16.80;13.73;;;18.70;99.90;;;;;;5099809;28;20465;-69
2022/10/22 11:38:28;;;;;;;16.43;13.67;;;18.70;99.90;;;;;;5099615;28;20464;-69
2022/10/22 11:40:58;;;;;;;15.73;12.87;;;18.90;99.90;;;;;;5099418;28;20453;-69
2022/10/22 11:43:32;;;;;;;14.40;12.57;;;19.10;99.90;;;;;;5100247;28;20463;-68
2022/10/22 11:46:09;;;;;;;15.57;13.37;;;19.30;99.90;;;;;;5099378;28;20449;-69
2022/10/22 11:48:38;;;;;;;14.90;12.40;;;19.30;99.90;;;;;;5098616;28;20452;-68
2022/10/22 11:51:43;;;;;;;15.83;12.10;;;19.40;99.90;;;;;;5097801;28;20457;-69
2022/10/22 11:54:31;;;;;;;14.77;11.80;;;19.80;99.90;;;;;;5097276;28;20447;-70
2022/10/22 11:57:18;;;;;;;13.80;11.93;;;20.30;99.90;;;;;;5097475;28;20461;-68
2022/10/22 11:59:49;;;;;;;13.23;11.57;;;20.40;99.90;;;;;;5098371;28;20528;-69
2022/10/22 12:02:42;;;;;;;12.10;10.80;;;20.70;99.90;;;;;;5098676;28;20438;-69
2022/10/22 12:05:32;;;;;;;12.50;11.20;;;21.20;99.90;;;;;;5077927;28;20476;-69
2022/10/22 12:08:02;;;;;;;12.37;11.10;;;21.70;99.90;;;;;;5097358;28;20898;-68
2022/10/22 12:10:49;;;;;;;13.03;10.40;;;21.80;99.90;;;;;;5097970;28;20941;-70
2022/10/22 12:13:23;;;;;;;14.17;11.03;;;22.30;99.90;;;;;;5098389;28;20473;-68
2022/10/22 12:15:53;;;;;;;10.60;9.50;;;22.30;99.90;;;;;;5097898;28;20552;-69
2022/10/22 12:18:24;;;;;;;9.77;8.07;;;22.80;99.90;;;;;;5098731;28;20545;-68
2022/10/22 12:20:53;;;;;;;8.40;7.13;;;23.30;99.90;;;;;;5098466;28;20441;-68
2022/10/22 12:23:24;;;;;;;10.10;7.33;;;23.80;99.90;;;;;;5099072;28;20761;-68
2022/10/22 12:25:52;;;;;;;8.67;7.73;;;24.40;99.90;;;;;;5098192;28;20533;-69
2022/10/22 12:28:19;;;;;;;10.13;7.37;;;24.80;99.90;;;;;;5097976;28;20496;-68
2022/10/22 12:30:47;;;;;;;9.83;7.63;;;24.50;99.90;;;;;;5096948;28;20511;-68
2022/10/22 12:33:20;;;;;;;15.47;7.60;;;24.30;99.90;;;;;;5096515;28;20938;-69
2022/10/22 12:35:50;;;;;;;7.97;7.17;;;24.80;99.90;;;;;;5098905;28;20466;-68
2022/10/22 12:38:19;;;;;;;7.63;6.47;;;25.60;99.90;;;;;;5099193;28;20507;-69
2022/10/22 12:40:47;;;;;;;7.50;5.47;;;26.40;99.90;;;;;;5098158;28;20460;-68
2022/10/22 12:43:18;;;;;;;6.13;5.00;;;27.20;99.90;;;;;;5097675;28;20850;-68
2022/10/22 12:45:47;;;;;;;7.23;5.37;;;27.50;99.90;;;;;;5099679;28;20445;-69